sensor_id;sensor_type;location;lat;lon;timestamp;pressure;altitude;pressure_sealevel;temperature;humidity
40994;BME280;26722;43.212;27.932;2023-02-14T00:00:40;55312.44;;;-146.72;66.63
40994;BME280;26722;43.212;27.932;2023-02-14T00:03:05;55335.66;;;-146.72;66.59
40994;BME280;26722;43.212;27.932;2023-02-14T00:05:31;55333.56;;;-146.72;66.82
40994;BME280;26722;43.212;27.932;2023-02-14T00:07:56;55318.78;;;-146.72;66.95
40994;BME280;26722;43.212;27.932;2023-02-14T00:10:21;55323.00;;;-146.72;67.14
40994;BME280;26722;43.212;27.932;2023-02-14T00:12:47;55297.66;;;-146.72;67.51
40994;BME280;26722;43.212;27.932;2023-02-14T00:15:12;55314.56;;;-146.72;67.59
40994;BME280;26722;43.212;27.932;2023-02-14T00:17:55;55323.00;;;-146.72;67.55
40994;BME280;26722;43.212;27.932;2023-02-14T00:20:24;55314.56;;;-146.72;67.46
40994;BME280;26722;43.212;27.932;2023-02-14T00:22:49;55327.22;;;-146.72;67.60
40994;BME280;26722;43.212;27.932;2023-02-14T00:25:16;55327.22;;;-146.72;67.85
40994;BME280;26722;43.212;27.932;2023-02-14T00:27:42;55327.22;;;-146.72;67.70
40994;BME280;26722;43.212;27.932;2023-02-14T00:30:09;55320.88;;;-146.72;67.88
40994;BME280;26722;43.212;27.932;2023-02-14T00:32:36;55339.91;;;-146.72;68.06
40994;BME280;26722;43.212;27.932;2023-02-14T00:35:03;55337.78;;;-146.72;67.84
40994;BME280;26722;43.212;27.932;2023-02-14T00:37:28;55333.56;;;-146.72;67.96
40994;BME280;26722;43.212;27.932;2023-02-14T00:39:53;55335.66;;;-146.72;68.26
40994;BME280;26722;43.212;27.932;2023-02-14T00:42:19;55333.56;;;-146.72;68.51
40994;BME280;26722;43.212;27.932;2023-02-14T00:44:44;55318.78;;;-146.72;68.79
40994;BME280;26722;43.212;27.932;2023-02-14T00:47:10;55348.34;;;-146.72;69.01
40994;BME280;26722;43.212;27.932;2023-02-14T00:49:35;55335.66;;;-146.72;69.46
40994;BME280;26722;43.212;27.932;2023-02-14T00:52:01;55331.44;;;-146.72;69.43
40994;BME280;26722;43.212;27.932;2023-02-14T00:54:26;55344.13;;;-146.72;69.29
40994;BME280;26722;43.212;27.932;2023-02-14T00:56:52;55337.78;;;-146.72;69.59
40994;BME280;26722;43.212;27.932;2023-02-14T00:59:17;55339.91;;;-146.72;69.79
40994;BME280;26722;43.212;27.932;2023-02-14T01:01:43;55356.78;;;-146.72;69.97
40994;BME280;26722;43.212;27.932;2023-02-14T01:04:08;55348.34;;;-146.72;70.11
40994;BME280;26722;43.212;27.932;2023-02-14T01:06:34;55342.00;;;-146.72;70.13
40994;BME280;26722;43.212;27.932;2023-02-14T01:08:59;55339.91;;;-146.72;70.33
40994;BME280;26722;43.212;27.932;2023-02-14T01:11:25;55331.44;;;-146.72;70.41
40994;BME280;26722;43.212;27.932;2023-02-14T01:13:54;55337.78;;;-146.72;70.11
40994;BME280;26722;43.212;27.932;2023-02-14T01:16:21;55331.44;;;-146.72;70.25
40994;BME280;26722;43.212;27.932;2023-02-14T01:18:47;55325.13;;;-146.72;69.98
40994;BME280;26722;43.212;27.932;2023-02-14T01:21:25;55318.78;;;-146.72;69.76
40994;BME280;26722;43.212;27.932;2023-02-14T01:23:53;55320.88;;;-146.72;69.43
40994;BME280;26722;43.212;27.932;2023-02-14T01:26:20;55354.66;;;-146.72;69.32
40994;BME280;26722;43.212;27.932;2023-02-14T01:28:45;55318.78;;;-146.72;69.10
40994;BME280;26722;43.212;27.932;2023-02-14T01:31:16;55339.91;;;-146.72;68.96
40994;BME280;26722;43.212;27.932;2023-02-14T01:33:45;55314.56;;;-146.72;69.06
40994;BME280;26722;43.212;27.932;2023-02-14T01:38:44;55314.56;;;-146.72;68.97
40994;BME280;26722;43.212;27.932;2023-02-14T01:41:10;55318.78;;;-146.72;68.84
40994;BME280;26722;43.212;27.932;2023-02-14T01:46:21;55323.00;;;-146.72;68.97
40994;BME280;26722;43.212;27.932;2023-02-14T01:48:48;55377.91;;;-146.72;68.97
40994;BME280;26722;43.212;27.932;2023-02-14T01:51:16;55327.22;;;-146.72;68.72
40994;BME280;26722;43.212;27.932;2023-02-14T01:53:43;55310.34;;;-146.72;68.78
40994;BME280;26722;43.212;27.932;2023-02-14T01:56:12;55327.22;;;-146.72;68.50
40994;BME280;26722;43.212;27.932;2023-02-14T01:58:41;55304.00;;;-146.72;68.60
40994;BME280;26722;43.212;27.932;2023-02-14T02:01:11;55344.13;;;-146.72;68.34
40994;BME280;26722;43.212;27.932;2023-02-14T02:03:53;55304.00;;;-146.72;68.21
40994;BME280;26722;43.212;27.932;2023-02-14T02:06:28;55323.00;;;-146.72;68.21
40994;BME280;26722;43.212;27.932;2023-02-14T02:09:14;55301.88;;;-146.72;67.94
40994;BME280;26722;43.212;27.932;2023-02-14T02:11:42;55323.00;;;-146.72;67.87
40994;BME280;26722;43.212;27.932;2023-02-14T02:14:16;55335.66;;;-146.72;68.11
40994;BME280;26722;43.212;27.932;2023-02-14T02:19:53;55299.78;;;-146.72;68.00
40994;BME280;26722;43.212;27.932;2023-02-14T02:28:40;55337.78;;;-146.72;68.23
40994;BME280;26722;43.212;27.932;2023-02-14T02:44:38;55308.22;;;-146.72;69.10
40994;BME280;26722;43.212;27.932;2023-02-14T02:50:27;55318.78;;;-146.72;69.42
40994;BME280;26722;43.212;27.932;2023-02-14T02:55:59;55331.44;;;-146.72;69.92
40994;BME280;26722;43.212;27.932;2023-02-14T02:59:07;55335.66;;;-146.72;70.23
40994;BME280;26722;43.212;27.932;2023-02-14T03:01:45;55329.34;;;-146.72;70.16
40994;BME280;26722;43.212;27.932;2023-02-14T03:04:13;55344.13;;;-146.72;70.34
40994;BME280;26722;43.212;27.932;2023-02-14T03:06:59;55325.13;;;-146.72;70.58
40994;BME280;26722;43.212;27.932;2023-02-14T03:15:11;55323.00;;;-146.72;70.20
40994;BME280;26722;43.212;27.932;2023-02-14T03:23:19;55329.34;;;-146.72;70.41
40994;BME280;26722;43.212;27.932;2023-02-14T03:26:03;55314.56;;;-146.72;70.56
40994;BME280;26722;43.212;27.932;2023-02-14T03:37:03;55344.13;;;-146.72;70.75
40994;BME280;26722;43.212;27.932;2023-02-14T03:39:42;55348.34;;;-146.72;70.82
40994;BME280;26722;43.212;27.932;2023-02-14T03:42:18;55329.34;;;-146.72;71.01
40994;BME280;26722;43.212;27.932;2023-02-14T03:44:45;55356.78;;;-146.72;70.90
40994;BME280;26722;43.212;27.932;2023-02-14T03:47:16;55367.34;;;-146.72;71.27
40994;BME280;26722;43.212;27.932;2023-02-14T03:49:49;55354.66;;;-146.72;71.19
40994;BME280;26722;43.212;27.932;2023-02-14T03:52:17;55337.78;;;-146.72;71.25
40994;BME280;26722;43.212;27.932;2023-02-14T03:54:45;55363.13;;;-146.72;71.53
40994;BME280;26722;43.212;27.932;2023-02-14T03:59:46;55327.22;;;-146.72;72.16
40994;BME280;26722;43.212;27.932;2023-02-14T04:04:51;55346.22;;;-146.72;72.47
40994;BME280;26722;43.212;27.932;2023-02-14T04:07:20;55348.34;;;-146.72;72.52
40994;BME280;26722;43.212;27.932;2023-02-14T04:09:47;55352.56;;;-146.72;72.60
40994;BME280;26722;43.212;27.932;2023-02-14T04:12:14;55327.22;;;-146.72;72.41
40994;BME280;26722;43.212;27.932;2023-02-14T04:14:40;55331.44;;;-146.72;72.34
40994;BME280;26722;43.212;27.932;2023-02-14T04:17:06;55356.78;;;-146.72;72.26
40994;BME280;26722;43.212;27.932;2023-02-14T04:19:50;55348.34;;;-146.72;72.14
40994;BME280;26722;43.212;27.932;2023-02-14T04:22:15;55327.22;;;-146.72;71.76
40994;BME280;26722;43.212;27.932;2023-02-14T04:24:41;55363.13;;;-146.72;71.41
40994;BME280;26722;43.212;27.932;2023-02-14T04:27:06;55335.66;;;-146.72;71.38
40994;BME280;26722;43.212;27.932;2023-02-14T04:32:08;55344.13;;;-146.72;70.70
40994;BME280;26722;43.212;27.932;2023-02-14T04:34:34;55344.13;;;-146.72;70.65
40994;BME280;26722;43.212;27.932;2023-02-14T04:37:00;55354.66;;;-146.72;70.75
40994;BME280;26722;43.212;27.932;2023-02-14T04:39:26;55310.34;;;-146.72;70.68
40994;BME280;26722;43.212;27.932;2023-02-14T04:41:52;55337.78;;;-146.72;70.54
40994;BME280;26722;43.212;27.932;2023-02-14T04:44:17;55335.66;;;-146.72;70.49
40994;BME280;26722;43.212;27.932;2023-02-14T04:46:43;55333.56;;;-146.72;70.36
40994;BME280;26722;43.212;27.932;2023-02-14T04:49:08;55344.13;;;-146.72;70.46
40994;BME280;26722;43.212;27.932;2023-02-14T04:51:33;55331.44;;;-146.72;70.32
40994;BME280;26722;43.212;27.932;2023-02-14T04:53:59;55327.22;;;-146.72;70.18
40994;BME280;26722;43.212;27.932;2023-02-14T04:56:24;55335.66;;;-146.72;70.53
40994;BME280;26722;43.212;27.932;2023-02-14T04:58:52;55339.91;;;-146.72;70.41
40994;BME280;26722;43.212;27.932;2023-02-14T05:01:17;55337.78;;;-146.72;70.30
40994;BME280;26722;43.212;27.932;2023-02-14T05:03:43;55352.56;;;-146.72;70.11
40994;BME280;26722;43.212;27.932;2023-02-14T05:06:08;55344.13;;;-146.72;70.00
40994;BME280;26722;43.212;27.932;2023-02-14T05:08:33;55342.00;;;-146.72;70.12
40994;BME280;26722;43.212;27.932;2023-02-14T05:10:59;55335.66;;;-146.72;69.97
40994;BME280;26722;43.212;27.932;2023-02-14T05:13:24;55346.22;;;-146.72;69.90
40994;BME280;26722;43.212;27.932;2023-02-14T05:15:50;55369.44;;;-146.72;69.66
40994;BME280;26722;43.212;27.932;2023-02-14T05:18:15;55316.66;;;-146.72;69.67
40994;BME280;26722;43.212;27.932;2023-02-14T05:20:41;55346.22;;;-146.72;69.66
40994;BME280;26722;43.212;27.932;2023-02-14T05:23:06;55346.22;;;-146.72;69.43
40994;BME280;26722;43.212;27.932;2023-02-14T05:25:41;55348.34;;;-146.72;68.66
40994;BME280;26722;43.212;27.932;2023-02-14T05:28:06;55335.66;;;-146.72;68.52
40994;BME280;26722;43.212;27.932;2023-02-14T05:30:32;55344.13;;;-146.72;68.18
40994;BME280;26722;43.212;27.932;2023-02-14T05:32:57;55331.44;;;-146.72;67.70
40994;BME280;26722;43.212;27.932;2023-02-14T05:35:23;55323.00;;;-146.72;67.69
40994;BME280;26722;43.212;27.932;2023-02-14T05:37:48;55314.56;;;-146.72;67.22
40994;BME280;26722;43.212;27.932;2023-02-14T05:40:14;55320.88;;;-146.72;67.09
40994;BME280;26722;43.212;27.932;2023-02-14T05:42:43;55314.56;;;-146.72;66.71
40994;BME280;26722;43.212;27.932;2023-02-14T05:45:09;55323.00;;;-146.72;66.65
40994;BME280;26722;43.212;27.932;2023-02-14T05:47:35;55314.56;;;-146.72;66.28
40994;BME280;26722;43.212;27.932;2023-02-14T05:50:00;55365.22;;;-146.72;66.12
40994;BME280;26722;43.212;27.932;2023-02-14T05:52:26;55314.56;;;-146.72;66.02
40994;BME280;26722;43.212;27.932;2023-02-14T05:54:51;55312.44;;;-146.72;65.68
40994;BME280;26722;43.212;27.932;2023-02-14T05:57:17;55306.09;;;-146.72;65.47
40994;BME280;26722;43.212;27.932;2023-02-14T05:59:43;55333.56;;;-146.72;65.58
40994;BME280;26722;43.212;27.932;2023-02-14T06:02:08;55304.00;;;-146.72;65.35
40994;BME280;26722;43.212;27.932;2023-02-14T06:04:33;55295.56;;;-146.72;65.12
40994;BME280;26722;43.212;27.932;2023-02-14T06:06:59;55289.22;;;-146.72;65.17
40994;BME280;26722;43.212;27.932;2023-02-14T06:09:25;55316.66;;;-146.72;65.14
40994;BME280;26722;43.212;27.932;2023-02-14T06:11:50;55323.00;;;-146.72;65.30
40994;BME280;26722;43.212;27.932;2023-02-14T06:14:16;55323.00;;;-146.72;65.12
40994;BME280;26722;43.212;27.932;2023-02-14T06:16:41;55327.22;;;-146.72;65.53
40994;BME280;26722;43.212;27.932;2023-02-14T06:19:07;55272.31;;;-146.72;65.57
40994;BME280;26722;43.212;27.932;2023-02-14T06:21:32;55314.56;;;-146.72;65.74
40994;BME280;26722;43.212;27.932;2023-02-14T06:23:58;55314.56;;;-146.72;65.46
40994;BME280;26722;43.212;27.932;2023-02-14T06:26:23;55323.00;;;-146.72;65.43
40994;BME280;26722;43.212;27.932;2023-02-14T06:28:56;55306.09;;;-146.72;65.34
40994;BME280;26722;43.212;27.932;2023-02-14T06:31:23;55297.66;;;-146.72;65.06
40994;BME280;26722;43.212;27.932;2023-02-14T06:33:48;55323.00;;;-146.72;64.97
40994;BME280;26722;43.212;27.932;2023-02-14T06:36:14;55318.78;;;-146.72;65.21
40994;BME280;26722;43.212;27.932;2023-02-14T06:38:40;55320.88;;;-146.72;65.59
40994;BME280;26722;43.212;27.932;2023-02-14T06:41:07;55323.00;;;-146.72;65.79
40994;BME280;26722;43.212;27.932;2023-02-14T06:43:33;55314.56;;;-146.72;65.59
40994;BME280;26722;43.212;27.932;2023-02-14T06:45:59;55304.00;;;-146.72;65.21
40994;BME280;26722;43.212;27.932;2023-02-14T06:48:24;55304.00;;;-146.72;65.17
40994;BME280;26722;43.212;27.932;2023-02-14T06:50:50;55299.78;;;-146.72;65.06
40994;BME280;26722;43.212;27.932;2023-02-14T06:53:17;55306.09;;;-146.72;64.78
40994;BME280;26722;43.212;27.932;2023-02-14T06:55:43;55323.00;;;-146.72;64.55
40994;BME280;26722;43.212;27.932;2023-02-14T06:58:08;55297.66;;;-146.72;64.21
40994;BME280;26722;43.212;27.932;2023-02-14T07:00:34;55310.34;;;-146.72;63.83
40994;BME280;26722;43.212;27.932;2023-02-14T07:02:59;55295.56;;;-146.72;63.73
40994;BME280;26722;43.212;27.932;2023-02-14T07:05:25;55310.34;;;-146.72;63.81
40994;BME280;26722;43.212;27.932;2023-02-14T07:07:50;55291.34;;;-146.72;64.19
40994;BME280;26722;43.212;27.932;2023-02-14T07:10:15;55280.78;;;-146.72;63.45
40994;BME280;26722;43.212;27.932;2023-02-14T07:12:41;55280.78;;;-146.72;62.88
40994;BME280;26722;43.212;27.932;2023-02-14T07:15:08;55285.00;;;-146.72;62.28
40994;BME280;26722;43.212;27.932;2023-02-14T07:17:34;55270.22;;;-146.72;61.83
40994;BME280;26722;43.212;27.932;2023-02-14T07:20:00;55266.00;;;-146.72;61.90
40994;BME280;26722;43.212;27.932;2023-02-14T07:22:25;55276.56;;;-146.72;61.83
40994;BME280;26722;43.212;27.932;2023-02-14T07:24:51;55301.88;;;-146.72;62.21
40994;BME280;26722;43.212;27.932;2023-02-14T07:27:16;55270.22;;;-146.72;62.34
40994;BME280;26722;43.212;27.932;2023-02-14T07:29:42;55289.22;;;-146.72;62.68
40994;BME280;26722;43.212;27.932;2023-02-14T07:32:07;55297.66;;;-146.72;63.26
40994;BME280;26722;43.212;27.932;2023-02-14T07:34:33;55301.88;;;-146.72;62.95
40994;BME280;26722;43.212;27.932;2023-02-14T07:37:00;55276.56;;;-146.72;62.61
40994;BME280;26722;43.212;27.932;2023-02-14T07:39:25;55263.88;;;-146.72;62.44
40994;BME280;26722;43.212;27.932;2023-02-14T07:41:51;55263.88;;;-146.72;62.42
40994;BME280;26722;43.212;27.932;2023-02-14T07:44:16;55276.56;;;-146.72;61.79
40994;BME280;26722;43.212;27.932;2023-02-14T07:46:42;55255.44;;;-146.72;61.68
40994;BME280;26722;43.212;27.932;2023-02-14T07:49:07;55251.22;;;-146.72;61.76
40994;BME280;26722;43.212;27.932;2023-02-14T07:51:33;55251.22;;;-146.72;61.45
40994;BME280;26722;43.212;27.932;2023-02-14T07:53:58;55240.66;;;-146.72;61.24
40994;BME280;26722;43.212;27.932;2023-02-14T07:56:24;55268.09;;;-146.72;61.22
40994;BME280;26722;43.212;27.932;2023-02-14T07:58:49;55240.66;;;-146.72;60.85
40994;BME280;26722;43.212;27.932;2023-02-14T08:01:15;55253.31;;;-146.72;60.37
40994;BME280;26722;43.212;27.932;2023-02-14T08:03:41;55247.00;;;-146.72;60.26
40994;BME280;26722;43.212;27.932;2023-02-14T08:06:10;55242.78;;;-146.72;60.26
40994;BME280;26722;43.212;27.932;2023-02-14T08:08:35;55251.22;;;-146.72;60.17
40994;BME280;26722;43.212;27.932;2023-02-14T08:11:01;55247.00;;;-146.72;59.73
40994;BME280;26722;43.212;27.932;2023-02-14T08:13:26;55249.09;;;-146.72;58.76
40994;BME280;26722;43.212;27.932;2023-02-14T08:15:52;55221.66;;;-146.72;57.24
40994;BME280;26722;43.212;27.932;2023-02-14T08:18:31;55225.88;;;-146.72;56.34
40994;BME280;26722;43.212;27.932;2023-02-14T08:20:57;55213.22;;;-146.72;55.44
40994;BME280;26722;43.212;27.932;2023-02-14T08:23:24;55211.09;;;-146.72;54.33
40994;BME280;26722;43.212;27.932;2023-02-14T08:25:50;55194.22;;;-146.72;53.75
40994;BME280;26722;43.212;27.932;2023-02-14T08:28:16;55213.22;;;-146.72;52.74
40994;BME280;26722;43.212;27.932;2023-02-14T08:30:43;55211.09;;;-146.72;53.08
40994;BME280;26722;43.212;27.932;2023-02-14T08:33:09;55206.88;;;-146.72;52.49
40994;BME280;26722;43.212;27.932;2023-02-14T08:35:36;55206.88;;;-146.72;52.24
40994;BME280;26722;43.212;27.932;2023-02-14T08:38:01;55219.53;;;-146.72;51.98
40994;BME280;26722;43.212;27.932;2023-02-14T08:40:27;55215.31;;;-146.72;51.68
40994;BME280;26722;43.212;27.932;2023-02-14T08:42:53;55225.88;;;-146.72;52.04
40994;BME280;26722;43.212;27.932;2023-02-14T08:45:18;55221.66;;;-146.72;51.86
40994;BME280;26722;43.212;27.932;2023-02-14T08:47:44;55211.09;;;-146.72;51.88
40994;BME280;26722;43.212;27.932;2023-02-14T08:50:13;55217.44;;;-146.72;51.20
40994;BME280;26722;43.212;27.932;2023-02-14T08:52:40;55217.44;;;-146.72;50.67
40994;BME280;26722;43.212;27.932;2023-02-14T08:55:09;55234.31;;;-146.72;50.93
40994;BME280;26722;43.212;27.932;2023-02-14T08:57:34;55204.75;;;-146.72;50.67
40994;BME280;26722;43.212;27.932;2023-02-14T09:00:01;55190.00;;;-146.72;49.59
40994;BME280;26722;43.212;27.932;2023-02-14T09:02:26;55209.00;;;-146.72;49.24
40994;BME280;26722;43.212;27.932;2023-02-14T09:04:57;55192.09;;;-146.72;49.08
40994;BME280;26722;43.212;27.932;2023-02-14T09:07:22;55196.31;;;-146.72;48.72
40994;BME280;26722;43.212;27.932;2023-02-14T09:09:48;55185.75;;;-146.72;48.05
40994;BME280;26722;43.212;27.932;2023-02-14T09:12:13;55192.09;;;-146.72;46.81
40994;BME280;26722;43.212;27.932;2023-02-14T09:14:41;55209.00;;;-146.72;46.75
40994;BME280;26722;43.212;27.932;2023-02-14T09:17:12;55217.44;;;-146.72;46.82
40994;BME280;26722;43.212;27.932;2023-02-14T09:19:38;55187.88;;;-146.72;46.76
40994;BME280;26722;43.212;27.932;2023-02-14T09:22:05;55179.44;;;-146.72;45.05
40994;BME280;26722;43.212;27.932;2023-02-14T09:24:33;55185.75;;;-146.72;44.22
40994;BME280;26722;43.212;27.932;2023-02-14T09:26:59;55179.44;;;-146.72;44.44
40994;BME280;26722;43.212;27.932;2023-02-14T09:29:26;55202.66;;;-146.72;45.02
40994;BME280;26722;43.212;27.932;2023-02-14T09:31:56;55187.88;;;-146.72;45.04
40994;BME280;26722;43.212;27.932;2023-02-14T09:34:22;55183.66;;;-146.72;42.99
40994;BME280;26722;43.212;27.932;2023-02-14T09:37:10;55185.75;;;-146.72;42.19
40994;BME280;26722;43.212;27.932;2023-02-14T09:39:37;55170.97;;;-146.72;42.34
40994;BME280;26722;43.212;27.932;2023-02-14T09:42:40;55183.66;;;-146.72;42.20
40994;BME280;26722;43.212;27.932;2023-02-14T09:45:32;55154.09;;;-146.72;42.34
40994;BME280;26722;43.212;27.932;2023-02-14T09:50:47;55145.66;;;-146.72;42.43
40994;BME280;26722;43.212;27.932;2023-02-14T09:53:28;55179.44;;;-146.72;42.39
40994;BME280;26722;43.212;27.932;2023-02-14T09:59:00;55154.09;;;-146.72;42.37
40994;BME280;26722;43.212;27.932;2023-02-14T10:01:46;55179.44;;;-146.72;42.43
40994;BME280;26722;43.212;27.932;2023-02-14T10:04:23;55162.53;;;-146.72;42.10
40994;BME280;26722;43.212;27.932;2023-02-14T10:06:59;55179.44;;;-146.72;42.17
40994;BME280;26722;43.212;27.932;2023-02-14T10:09:39;55151.97;;;-146.72;42.84
40994;BME280;26722;43.212;27.932;2023-02-14T10:14:54;55196.31;;;-146.72;42.16
40994;BME280;26722;43.212;27.932;2023-02-14T10:17:35;55177.31;;;-146.72;41.19
40994;BME280;26722;43.212;27.932;2023-02-14T10:20:28;55179.44;;;-146.72;41.63
40994;BME280;26722;43.212;27.932;2023-02-14T10:25:44;55179.44;;;-146.72;40.86
40994;BME280;26722;43.212;27.932;2023-02-14T10:28:13;55162.53;;;-146.72;40.65
40994;BME280;26722;43.212;27.932;2023-02-14T10:30:42;55162.53;;;-146.72;39.92
40994;BME280;26722;43.212;27.932;2023-02-14T10:33:18;55175.22;;;-146.72;40.02
40994;BME280;26722;43.212;27.932;2023-02-14T10:35:49;55192.09;;;-146.72;40.11
40994;BME280;26722;43.212;27.932;2023-02-14T10:38:56;55170.97;;;-146.72;40.20
40994;BME280;26722;43.212;27.932;2023-02-14T10:51:51;55164.66;;;-146.72;40.43
40994;BME280;26722;43.212;27.932;2023-02-14T10:54:21;55164.66;;;-146.72;40.64
40994;BME280;26722;43.212;27.932;2023-02-14T10:57:15;55170.97;;;-146.72;40.54
40994;BME280;26722;43.212;27.932;2023-02-14T11:02:46;55164.66;;;-146.72;39.16
40994;BME280;26722;43.212;27.932;2023-02-14T11:05:31;55158.31;;;-146.72;38.66
40994;BME280;26722;43.212;27.932;2023-02-14T11:07:58;55147.75;;;-146.72;38.06
40994;BME280;26722;43.212;27.932;2023-02-14T11:10:31;55145.66;;;-146.72;37.50
40994;BME280;26722;43.212;27.932;2023-02-14T11:12:58;55158.31;;;-146.72;37.58
40994;BME280;26722;43.212;27.932;2023-02-14T11:15:32;55162.53;;;-146.72;37.27
40994;BME280;26722;43.212;27.932;2023-02-14T11:18:12;55149.88;;;-146.72;37.63
40994;BME280;26722;43.212;27.932;2023-02-14T11:20:40;55164.66;;;-146.72;37.97
40994;BME280;26722;43.212;27.932;2023-02-14T11:23:19;55160.44;;;-146.72;37.82
40994;BME280;26722;43.212;27.932;2023-02-14T11:25:50;55154.09;;;-146.72;38.06
40994;BME280;26722;43.212;27.932;2023-02-14T11:28:18;55149.88;;;-146.72;38.22
40994;BME280;26722;43.212;27.932;2023-02-14T11:30:48;55126.66;;;-146.72;38.02
40994;BME280;26722;43.212;27.932;2023-02-14T11:35:55;55156.22;;;-146.72;38.42
40994;BME280;26722;43.212;27.932;2023-02-14T11:38:26;55158.31;;;-146.72;37.75
40994;BME280;26722;43.212;27.932;2023-02-14T11:40:54;55154.09;;;-146.72;37.83
40994;BME280;26722;43.212;27.932;2023-02-14T11:43:38;55187.88;;;-146.72;37.90
40994;BME280;26722;43.212;27.932;2023-02-14T11:48:33;55145.66;;;-146.72;38.65
40994;BME280;26722;43.212;27.932;2023-02-14T11:53:26;55158.31;;;-146.72;38.91
40994;BME280;26722;43.212;27.932;2023-02-14T11:55:55;55154.09;;;-146.72;38.77
40994;BME280;26722;43.212;27.932;2023-02-14T11:58:30;55164.66;;;-146.72;38.22
40994;BME280;26722;43.212;27.932;2023-02-14T12:00:58;55141.44;;;-146.72;38.21
40994;BME280;26722;43.212;27.932;2023-02-14T12:03:25;55162.53;;;-146.72;38.11
40994;BME280;26722;43.212;27.932;2023-02-14T12:05:52;55147.75;;;-146.72;38.27
40994;BME280;26722;43.212;27.932;2023-02-14T12:08:26;55139.31;;;-146.72;38.13
40994;BME280;26722;43.212;27.932;2023-02-14T12:11:04;55154.09;;;-146.72;38.27
40994;BME280;26722;43.212;27.932;2023-02-14T12:13:31;55149.88;;;-146.72;37.86
40994;BME280;26722;43.212;27.932;2023-02-14T12:15:58;55132.97;;;-146.72;37.86
40994;BME280;26722;43.212;27.932;2023-02-14T12:18:34;55135.09;;;-146.72;38.24
40994;BME280;26722;43.212;27.932;2023-02-14T12:27:22;55154.09;;;-146.72;37.96
40994;BME280;26722;43.212;27.932;2023-02-14T12:34:49;55137.22;;;-146.72;37.82
40994;BME280;26722;43.212;27.932;2023-02-14T12:43:20;55124.53;;;-146.72;37.99
40994;BME280;26722;43.212;27.932;2023-02-14T12:48:52;55124.53;;;-146.72;37.82
40994;BME280;26722;43.212;27.932;2023-02-14T12:51:29;55160.44;;;-146.72;38.00
40994;BME280;26722;43.212;27.932;2023-02-14T12:56:48;55170.97;;;-146.72;39.02
40994;BME280;26722;43.212;27.932;2023-02-14T13:09:49;55173.09;;;-146.72;39.83
40994;BME280;26722;43.212;27.932;2023-02-14T13:14:59;55132.97;;;-146.72;39.38
40994;BME280;26722;43.212;27.932;2023-02-14T13:17:36;55170.97;;;-146.72;39.49
40994;BME280;26722;43.212;27.932;2023-02-14T13:22:33;55170.97;;;-146.72;39.48
40994;BME280;26722;43.212;27.932;2023-02-14T13:25:05;;;;-146.72;
40994;BME280;26722;43.212;27.932;2023-02-14T13:27:38;55166.75;;;-146.72;39.83
40994;BME280;26722;43.212;27.932;2023-02-14T13:30:06;55145.66;;;-146.72;39.66
40994;BME280;26722;43.212;27.932;2023-02-14T13:32:41;55175.22;;;-146.72;39.67
40994;BME280;26722;43.212;27.932;2023-02-14T13:35:16;55149.88;;;-146.72;39.76
40994;BME280;26722;43.212;27.932;2023-02-14T13:37:47;55170.97;;;-146.72;39.79
40994;BME280;26722;43.212;27.932;2023-02-14T13:40:23;55154.09;;;-146.72;40.00
40994;BME280;26722;43.212;27.932;2023-02-14T13:42:52;55156.22;;;-146.72;39.54
40994;BME280;26722;43.212;27.932;2023-02-14T13:48:14;55166.75;;;-146.72;39.44
40994;BME280;26722;43.212;27.932;2023-02-14T13:58:58;55162.53;;;-146.72;38.09
40994;BME280;26722;43.212;27.932;2023-02-14T14:01:41;55168.88;;;-146.72;38.42
40994;BME280;26722;43.212;27.932;2023-02-14T14:20:03;55175.22;;;-146.72;39.35
40994;BME280;26722;43.212;27.932;2023-02-14T14:22:53;55162.53;;;-146.72;39.06
40994;BME280;26722;43.212;27.932;2023-02-14T14:27:59;55179.44;;;-146.72;39.42
40994;BME280;26722;43.212;27.932;2023-02-14T14:30:28;55181.53;;;-146.72;39.54
40994;BME280;26722;43.212;27.932;2023-02-14T14:33:30;55192.09;;;-146.72;39.81
40994;BME280;26722;43.212;27.932;2023-02-14T14:35:57;55181.53;;;-146.72;39.91
40994;BME280;26722;43.212;27.932;2023-02-14T14:38:25;55181.53;;;-146.72;39.83
40994;BME280;26722;43.212;27.932;2023-02-14T14:40:50;55209.00;;;-146.72;39.83
40994;BME280;26722;43.212;27.932;2023-02-14T14:45:48;55170.97;;;-146.72;40.15
40994;BME280;26722;43.212;27.932;2023-02-14T14:48:18;55179.44;;;-146.72;40.46
40994;BME280;26722;43.212;27.932;2023-02-14T14:50:46;55175.22;;;-146.72;40.79
40994;BME280;26722;43.212;27.932;2023-02-14T14:55:51;55166.75;;;-146.72;41.26
40994;BME280;26722;43.212;27.932;2023-02-14T14:58:37;55200.53;;;-146.72;41.20
40994;BME280;26722;43.212;27.932;2023-02-14T15:01:05;55194.22;;;-146.72;41.40
40994;BME280;26722;43.212;27.932;2023-02-14T15:03:31;55187.88;;;-146.72;41.47
40994;BME280;26722;43.212;27.932;2023-02-14T15:08:40;55175.22;;;-146.72;41.63
40994;BME280;26722;43.212;27.932;2023-02-14T15:11:11;55200.53;;;-146.72;41.40
40994;BME280;26722;43.212;27.932;2023-02-14T15:13:58;55200.53;;;-146.72;41.79
40994;BME280;26722;43.212;27.932;2023-02-14T15:16:37;55166.75;;;-146.72;41.92
40994;BME280;26722;43.212;27.932;2023-02-14T15:19:10;55202.66;;;-146.72;42.11
40994;BME280;26722;43.212;27.932;2023-02-14T15:21:39;55185.75;;;-146.72;42.16
40994;BME280;26722;43.212;27.932;2023-02-14T15:24:11;55202.66;;;-146.72;42.33
40994;BME280;26722;43.212;27.932;2023-02-14T15:26:37;55198.44;;;-146.72;42.39
40994;BME280;26722;43.212;27.932;2023-02-14T15:29:05;55198.44;;;-146.72;42.64
40994;BME280;26722;43.212;27.932;2023-02-14T15:31:35;55204.75;;;-146.72;42.90